Time;durP1;ratioP1;P1;durP2;ratioP2;P2;SDS_P1;SDS_P2;PMS_P1;PMS_P2;Temp;Humidity;BMP_temperature;BMP_pressure;BME280_temperature;BME280_humidity;BME280_pressure;Samples;Min_cycle;Max_cycle;Signal;HPM_P1;HPM_P2
2022/11/23 00:00:34;;;;;;;5.20;2.35;;;;;;;;;;5069747;28;20404;-77
2022/11/23 00:03:00;;;;;;;5.22;2.30;;;;;;;;;;5069885;28;20035;-78
2022/11/23 00:05:27;;;;;;;4.07;2.00;;;;;;;;;;5069788;28;20024;-77
2022/11/23 00:07:53;;;;;;;4.72;2.30;;;;;;;;;;5069380;28;20024;-76
2022/11/23 00:10:19;;;;;;;4.82;2.38;;;;;;;;;;5069885;28;20158;-77
2022/11/23 00:12:45;;;;;;;7.03;3.03;;;;;;;;;;5067076;28;20122;-78
2022/11/23 00:15:12;;;;;;;4.57;2.55;;;;;;;;;;5069502;28;20465;-76
2022/11/23 00:17:38;;;;;;;5.95;2.70;;;;;;;;;;5069144;28;20028;-76
2022/11/23 00:20:04;;;;;;;4.10;2.30;;;;;;;;;;5069169;28;20039;-76
2022/11/23 00:22:30;;;;;;;5.47;2.78;;;;;;;;;;5068981;28;20111;-78
2022/11/23 00:24:55;;;;;;;5.63;2.70;;;;;;;;;;5069517;28;20108;-78
2022/11/23 00:27:21;;;;;;;5.47;2.47;;;;;;;;;;5068836;28;20031;-78
2022/11/23 00:29:46;;;;;;;5.85;2.92;;;;;;;;;;5069374;28;20048;-78
2022/11/23 00:32:12;;;;;;;6.78;2.60;;;;;;;;;;5069101;28;20021;-76
2022/11/23 00:34:37;;;;;;;4.90;2.38;;;;;;;;;;5069431;28;20387;-76
2022/11/23 00:37:03;;;;;;;5.07;2.53;;;;;;;;;;5069222;28;20465;-78
2022/11/23 00:39:28;;;;;;;6.68;2.50;;;;;;;;;;5068083;28;20597;-77
2022/11/23 00:41:54;;;;;;;4.13;2.60;;;;;;;;;;5067785;28;20031;-76
2022/11/23 00:44:19;;;;;;;5.28;2.42;;;;;;;;;;5079662;28;20081;-77
2022/11/23 00:46:44;;;;;;;4.15;2.40;;;;;;;;;;5078326;28;20024;-78
2022/11/23 00:49:10;;;;;;;5.47;2.70;;;;;;;;;;5069214;28;20357;-77
2022/11/23 00:51:36;;;;;;;4.90;2.20;;;;;;;;;;5068998;28;20670;-78
2022/11/23 00:54:04;;;;;;;5.95;2.40;;;;;;;;;;5069440;28;20025;-75
2022/11/23 00:56:31;;;;;;;5.57;2.72;;;;;;;;;;5068742;28;20496;-76
2022/11/23 00:58:58;;;;;;;4.25;2.28;;;;;;;;;;5069013;28;20028;-77
2022/11/23 01:01:26;;;;;;;5.00;1.63;;;;;;;;;;5069097;28;20033;-78
2022/11/23 01:03:55;;;;;;;3.45;1.83;;;;;;;;;;5069056;28;20032;-76
2022/11/23 01:06:25;;;;;;;7.63;3.60;;;;;;;;;;5068574;28;20066;-75
2022/11/23 01:08:53;;;;;;;6.28;2.63;;;;;;;;;;5069777;28;20103;-75
2022/11/23 01:11:19;;;;;;;6.97;2.78;;;;;;;;;;5080413;28;20316;-75
2022/11/23 01:13:45;;;;;;;6.95;3.17;;;;;;;;;;5080302;28;20205;-74
2022/11/23 01:16:17;;;;;;;4.20;1.70;;;;;;;;;;5080393;28;20308;-74
2022/11/23 01:18:42;;;;;;;2.90;1.10;;;;;;;;;;5080422;28;20086;-75
2022/11/23 01:21:08;;;;;;;3.28;1.65;;;;;;;;;;5074907;28;20033;-75
2022/11/23 01:23:34;;;;;;;5.47;2.40;;;;;;;;;;5073621;28;20025;-76
2022/11/23 01:26:07;;;;;;;6.65;2.33;;;;;;;;;;5072354;28;20024;-75
2022/11/23 01:28:33;;;;;;;5.43;2.40;;;;;;;;;;5073544;28;20100;-75
2022/11/23 01:31:07;;;;;;;7.22;2.60;;;;;;;;;;5073202;28;20063;-76
2022/11/23 01:33:32;;;;;;;4.53;1.90;;;;;;;;;;5072405;28;20017;-77
2022/11/23 01:35:58;;;;;;;3.88;1.77;;;;;;;;;;5072570;28;20032;-76
2022/11/23 01:38:23;;;;;;;4.78;1.90;;;;;;;;;;5073766;28;20056;-76
2022/11/23 01:40:49;;;;;;;5.97;2.42;;;;;;;;;;5072313;28;20111;-76
2022/11/23 01:43:17;;;;;;;6.22;2.55;;;;;;;;;;5071867;28;20107;-74
2022/11/23 01:45:55;;;;;;;4.28;1.73;;;;;;;;;;5073966;28;20074;-76
2022/11/23 01:48:25;;;;;;;3.30;1.80;;;;;;;;;;5072247;28;20052;-76
2022/11/23 01:50:52;;;;;;;4.63;1.33;;;;;;;;;;5072914;28;20025;-75
2022/11/23 01:53:18;;;;;;;1.90;1.00;;;;;;;;;;5072240;28;20032;-75
2022/11/23 01:55:46;;;;;;;3.20;1.23;;;;;;;;;;5072063;28;20546;-74
2022/11/23 01:58:14;;;;;;;3.38;1.35;;;;;;;;;;5071104;28;20063;-74
2022/11/23 02:00:40;;;;;;;2.58;1.45;;;;;;;;;;5072143;28;20032;-74
2022/11/23 02:03:06;;;;;;;5.40;1.80;;;;;;;;;;5071917;28;20029;-73
2022/11/23 02:05:42;;;;;;;3.17;1.20;;;;;;;;;;5072158;28;20447;-75
2022/11/23 02:08:08;;;;;;;7.07;1.95;;;;;;;;;;5071792;28;20033;-78
2022/11/23 02:10:35;;;;;;;6.45;2.03;;;;;;;;;;5071922;28;20033;-74
2022/11/23 02:13:06;;;;;;;7.28;2.30;;;;;;;;;;5069913;28;20035;-74
2022/11/23 02:15:34;;;;;;;4.88;1.40;;;;;;;;;;5083310;28;20048;-74
2022/11/23 02:18:01;;;;;;;10.77;3.80;;;;;;;;;;5080533;28;20446;-74
2022/11/23 02:20:27;;;;;;;3.63;1.65;;;;;;;;;;5082974;28;20032;-74
2022/11/23 02:23:11;;;;;;;3.78;1.55;;;;;;;;;;5081054;28;20550;-74
2022/11/23 02:25:45;;;;;;;3.65;1.33;;;;;;;;;;5071512;28;20028;-75
2022/11/23 02:28:23;;;;;;;3.72;1.58;;;;;;;;;;5070995;28;20032;-73
2022/11/23 02:30:52;;;;;;;3.10;1.02;;;;;;;;;;5071669;28;20028;-75
2022/11/23 02:33:17;;;;;;;3.13;1.20;;;;;;;;;;5071116;28;20039;-76
2022/11/23 02:35:55;;;;;;;3.15;1.30;;;;;;;;;;5070485;28;20029;-78
2022/11/23 02:38:27;;;;;;;4.18;1.13;;;;;;;;;;5070998;28;20033;-78
2022/11/23 02:40:53;;;;;;;3.30;1.15;;;;;;;;;;5073120;28;20197;-77
2022/11/23 02:43:18;;;;;;;3.65;1.30;;;;;;;;;;5070866;28;20078;-75
2022/11/23 02:45:51;;;;;;;3.88;1.80;;;;;;;;;;5071202;28;20024;-75
2022/11/23 02:48:18;;;;;;;5.55;1.92;;;;;;;;;;5070600;28;20046;-76
2022/11/23 02:50:45;;;;;;;4.10;1.60;;;;;;;;;;5071047;28;20443;-77
2022/11/23 02:53:11;;;;;;;4.60;1.40;;;;;;;;;;5070788;28;20507;-76
2022/11/23 02:55:37;;;;;;;4.95;1.48;;;;;;;;;;5070934;28;20143;-75
2022/11/23 02:58:03;;;;;;;6.07;1.80;;;;;;;;;;5072005;28;20035;-76
2022/11/23 03:00:29;;;;;;;4.20;1.88;;;;;;;;;;5072248;28;20075;-75
2022/11/23 03:02:54;;;;;;;3.97;1.65;;;;;;;;;;5070761;28;20036;-75
2022/11/23 03:05:21;;;;;;;5.50;1.80;;;;;;;;;;5073401;28;20024;-77
2022/11/23 03:07:46;;;;;;;5.85;2.20;;;;;;;;;;5070531;28;20027;-76
2022/11/23 03:10:12;;;;;;;7.45;2.50;;;;;;;;;;5070618;28;20021;-76
2022/11/23 03:12:37;;;;;;;6.00;1.70;;;;;;;;;;5068886;28;20020;-76
2022/11/23 03:15:03;;;;;;;2.92;1.10;;;;;;;;;;5072246;28;20021;-77
2022/11/23 03:17:29;;;;;;;2.20;1.08;;;;;;;;;;5070447;28;20533;-76
2022/11/23 03:19:54;;;;;;;2.85;1.00;;;;;;;;;;5070573;28;20028;-76
2022/11/23 03:22:20;;;;;;;3.75;1.52;;;;;;;;;;5070522;28;20024;-76
2022/11/23 03:24:46;;;;;;;2.80;1.23;;;;;;;;;;5069963;28;20074;-77
2022/11/23 03:27:11;;;;;;;2.17;1.10;;;;;;;;;;5069708;28;20028;-77
2022/11/23 03:29:36;;;;;;;3.83;1.70;;;;;;;;;;5070175;28;20090;-77
2022/11/23 03:32:02;;;;;;;3.67;1.20;;;;;;;;;;5071701;28;20028;-77
2022/11/23 03:34:27;;;;;;;1.58;1.10;;;;;;;;;;5070165;28;20028;-77
2022/11/23 03:36:53;;;;;;;1.40;0.80;;;;;;;;;;5070347;28;20074;-76
2022/11/23 03:39:18;;;;;;;3.38;1.30;;;;;;;;;;5069723;28;20085;-77
2022/11/23 03:41:44;;;;;;;3.60;1.60;;;;;;;;;;5070029;28;20103;-77
2022/11/23 03:44:09;;;;;;;5.35;2.10;;;;;;;;;;5069566;28;20013;-77
2022/11/23 03:46:35;;;;;;;5.18;1.90;;;;;;;;;;5069861;28;20035;-77
2022/11/23 03:49:00;;;;;;;5.40;1.60;;;;;;;;;;5068406;28;20033;-77
2022/11/23 03:51:26;;;;;;;6.18;2.78;;;;;;;;;;5068834;28;20437;-77
2022/11/23 03:53:51;;;;;;;6.30;2.63;;;;;;;;;;5069841;28;20039;-77
2022/11/23 03:56:16;;;;;;;3.45;1.20;;;;;;;;;;5069924;28;20048;-76
2022/11/23 03:58:42;;;;;;;6.85;2.83;;;;;;;;;;5068808;28;20036;-77
2022/11/23 04:01:07;;;;;;;4.50;1.98;;;;;;;;;;5069697;28;20028;-76
2022/11/23 04:03:33;;;;;;;4.18;1.40;;;;;;;;;;5069553;28;20020;-77
2022/11/23 04:05:59;;;;;;;2.58;1.25;;;;;;;;;;5069990;28;20021;-76
2022/11/23 04:08:25;;;;;;;3.92;1.70;;;;;;;;;;5069477;28;20032;-76
2022/11/23 04:10:50;;;;;;;2.67;1.20;;;;;;;;;;5069794;28;20023;-77
2022/11/23 04:13:16;;;;;;;5.32;1.70;;;;;;;;;;5069498;28;20108;-76
2022/11/23 04:15:42;;;;;;;3.58;1.25;;;;;;;;;;5069375;28;20082;-76
2022/11/23 04:18:07;;;;;;;1.38;0.60;;;;;;;;;;5069353;28;20035;-76
2022/11/23 04:20:32;;;;;;;3.08;1.02;;;;;;;;;;5069106;28;20043;-77
2022/11/23 04:22:58;;;;;;;2.72;1.20;;;;;;;;;;5069496;28;20028;-76
2022/11/23 04:25:23;;;;;;;3.90;1.50;;;;;;;;;;5070696;28;20060;-77
2022/11/23 04:27:49;;;;;;;3.28;1.02;;;;;;;;;;5069017;28;20039;-77
2022/11/23 04:30:14;;;;;;;3.95;1.40;;;;;;;;;;5069327;28;20408;-77
2022/11/23 04:32:40;;;;;;;1.77;0.88;;;;;;;;;;5069322;28;20507;-78
2022/11/23 04:35:05;;;;;;;2.60;0.90;;;;;;;;;;5069159;28;20048;-77
2022/11/23 04:37:31;;;;;;;2.97;0.90;;;;;;;;;;5069231;28;20099;-77
2022/11/23 04:39:56;;;;;;;5.40;0.90;;;;;;;;;;5069116;28;20066;-77
2022/11/23 04:42:22;;;;;;;3.38;1.70;;;;;;;;;;5069292;28;20104;-77
2022/11/23 04:44:47;;;;;;;3.22;1.13;;;;;;;;;;5069083;28;20036;-77
2022/11/23 04:47:13;;;;;;;4.18;1.40;;;;;;;;;;5070237;28;20050;-77
2022/11/23 04:49:38;;;;;;;1.67;0.93;;;;;;;;;;5067599;28;20584;-77
2022/11/23 04:52:05;;;;;;;3.00;1.10;;;;;;;;;;5069465;28;20035;-78
2022/11/23 04:54:31;;;;;;;2.38;1.27;;;;;;;;;;5075715;28;20025;-78
2022/11/23 04:56:56;;;;;;;2.03;1.00;;;;;;;;;;5079382;28;20048;-77
2022/11/23 04:59:22;;;;;;;2.17;1.17;;;;;;;;;;5081212;28;20078;-78
2022/11/23 05:01:48;;;;;;;3.53;1.05;;;;;;;;;;5084749;28;20123;-77
2022/11/23 05:04:14;;;;;;;4.35;1.13;;;;;;;;;;5080175;28;20024;-77
2022/11/23 05:06:39;;;;;;;2.63;0.90;;;;;;;;;;5084655;28;20059;-77
2022/11/23 05:09:05;;;;;;;2.28;1.20;;;;;;;;;;5084290;28;20043;-77
2022/11/23 05:11:30;;;;;;;4.97;1.20;;;;;;;;;;5084498;28;20031;-77
2022/11/23 05:13:56;;;;;;;4.20;1.50;;;;;;;;;;5084097;28;20316;-77
2022/11/23 05:16:21;;;;;;;2.13;1.00;;;;;;;;;;5084204;28;20032;-77
2022/11/23 05:18:46;;;;;;;4.60;1.73;;;;;;;;;;5082939;28;20025;-78
2022/11/23 05:21:12;;;;;;;3.78;1.60;;;;;;;;;;5074793;28;20016;-77
2022/11/23 05:23:37;;;;;;;2.85;1.10;;;;;;;;;;5072916;28;20024;-76
2022/11/23 05:26:03;;;;;;;1.88;0.70;;;;;;;;;;5072538;28;20056;-77
2022/11/23 05:28:28;;;;;;;5.20;1.80;;;;;;;;;;5077318;28;20047;-77
2022/11/23 05:30:54;;;;;;;6.47;2.95;;;;;;;;;;5083875;28;20070;-77
2022/11/23 05:33:19;;;;;;;9.80;3.60;;;;;;;;;;5083914;28;20028;-77
2022/11/23 05:35:45;;;;;;;22.80;8.85;;;;;;;;;;5076237;28;20335;-77
2022/11/23 05:38:10;;;;;;;17.98;7.85;;;;;;;;;;5083905;28;20090;-77
2022/11/23 05:40:36;;;;;;;6.97;4.22;;;;;;;;;;5080259;28;20269;-77
2022/11/23 05:43:01;;;;;;;5.30;2.88;;;;;;;;;;5078376;28;20472;-76
2022/11/23 05:45:27;;;;;;;6.63;3.85;;;;;;;;;;5072112;28;20077;-77
2022/11/23 05:47:55;;;;;;;5.53;3.13;;;;;;;;;;5072093;28;20032;-77
2022/11/23 05:50:22;;;;;;;3.42;1.65;;;;;;;;;;5070491;28;20059;-77
2022/11/23 05:52:47;;;;;;;4.10;1.10;;;;;;;;;;5071745;28;20617;-77
2022/11/23 05:55:14;;;;;;;2.97;1.00;;;;;;;;;;5071826;28;20024;-76
2022/11/23 05:57:40;;;;;;;1.50;0.70;;;;;;;;;;5071730;28;20021;-76
2022/11/23 06:00:06;;;;;;;1.38;0.60;;;;;;;;;;5073419;28;20028;-76
2022/11/23 06:02:31;;;;;;;1.85;0.63;;;;;;;;;;5072827;28;20403;-76
2022/11/23 06:04:57;;;;;;;1.58;0.43;;;;;;;;;;5071839;28;20032;-76
2022/11/23 06:07:22;;;;;;;2.05;0.55;;;;;;;;;;5071718;28;20024;-77
2022/11/23 06:09:48;;;;;;;3.08;0.70;;;;;;;;;;5071513;28;20032;-76
2022/11/23 06:12:14;;;;;;;1.52;0.60;;;;;;;;;;5071217;28;20126;-76
2022/11/23 06:14:40;;;;;;;2.53;0.70;;;;;;;;;;5071634;28;20133;-77
2022/11/23 06:17:05;;;;;;;2.00;0.70;;;;;;;;;;5074000;28;20483;-76
2022/11/23 06:19:31;;;;;;;2.28;1.10;;;;;;;;;;5071400;28;20028;-77
2022/11/23 06:21:57;;;;;;;3.17;1.70;;;;;;;;;;5074267;28;20067;-76
2022/11/23 06:24:23;;;;;;;3.47;1.25;;;;;;;;;;5072140;28;20526;-76
2022/11/23 06:26:50;;;;;;;2.47;1.05;;;;;;;;;;5072710;28;20032;-76
2022/11/23 06:29:15;;;;;;;3.00;1.30;;;;;;;;;;5071215;28;20090;-76
2022/11/23 06:31:41;;;;;;;3.55;2.08;;;;;;;;;;5072750;28;20032;-75
2022/11/23 06:34:06;;;;;;;5.60;2.42;;;;;;;;;;5071557;28;20403;-75
2022/11/23 06:36:32;;;;;;;3.28;1.60;;;;;;;;;;5071149;28;20435;-75
2022/11/23 06:38:57;;;;;;;3.35;1.70;;;;;;;;;;5072534;28;20021;-75
2022/11/23 06:41:23;;;;;;;3.83;1.40;;;;;;;;;;5070966;28;20036;-75
2022/11/23 06:43:48;;;;;;;3.22;1.40;;;;;;;;;;5070848;28;20647;-76
2022/11/23 06:46:15;;;;;;;4.45;1.42;;;;;;;;;;5069856;28;20031;-76
2022/11/23 06:48:43;;;;;;;3.80;1.60;;;;;;;;;;5070852;28;20103;-77
2022/11/23 06:51:09;;;;;;;3.38;1.25;;;;;;;;;;5070942;28;20021;-75
2022/11/23 06:53:35;;;;;;;3.05;1.80;;;;;;;;;;5071146;28;20032;-77
2022/11/23 06:56:01;;;;;;;4.55;2.60;;;;;;;;;;5070266;28;20431;-76
2022/11/23 06:58:27;;;;;;;5.63;3.30;;;;;;;;;;5069975;28;20025;-77
2022/11/23 07:00:52;;;;;;;6.95;3.50;;;;;;;;;;5070769;28;20046;-76
2022/11/23 07:03:20;;;;;;;4.45;2.20;;;;;;;;;;5070896;28;20581;-77
2022/11/23 07:05:46;;;;;;;4.47;2.47;;;;;;;;;;5070765;28;20028;-77
2022/11/23 07:08:11;;;;;;;3.58;1.90;;;;;;;;;;5070902;28;20104;-77
2022/11/23 07:10:37;;;;;;;3.05;1.73;;;;;;;;;;5070300;28;20024;-76
2022/11/23 07:13:04;;;;;;;5.18;1.90;;;;;;;;;;5070214;28;20024;-76
2022/11/23 07:15:30;;;;;;;5.03;1.67;;;;;;;;;;5070371;28;20024;-77
2022/11/23 07:17:55;;;;;;;2.90;1.38;;;;;;;;;;5070752;28;20028;-77
2022/11/23 07:20:20;;;;;;;3.65;1.50;;;;;;;;;;5070098;28;20103;-76
2022/11/23 07:22:46;;;;;;;3.67;2.10;;;;;;;;;;5069851;28;20103;-77
2022/11/23 07:25:15;;;;;;;3.83;3.10;;;;;;;;;;5070716;28;20066;-76
2022/11/23 07:27:41;;;;;;;3.45;2.30;;;;;;;;;;5070051;28;20028;-76
2022/11/23 07:30:07;;;;;;;2.88;1.67;;;;;;;;;;5074877;28;20091;-76
2022/11/23 07:32:32;;;;;;;4.10;2.17;;;;;;;;;;5081699;28;20027;-78
2022/11/23 07:34:58;;;;;;;3.28;2.08;;;;;;;;;;5081483;28;20025;-82
2022/11/23 07:37:23;;;;;;;4.18;2.30;;;;;;;;;;5081623;28;20268;-80
2022/11/23 07:39:51;;;;;;;3.17;2.10;;;;;;;;;;5081482;28;20025;-76
2022/11/23 07:42:17;;;;;;;4.07;1.70;;;;;;;;;;5081260;28;20024;-74
2022/11/23 07:44:42;;;;;;;3.90;1.60;;;;;;;;;;5093480;28;20024;-75
2022/11/23 07:47:08;;;;;;;3.80;1.92;;;;;;;;;;5082657;28;20044;-75
2022/11/23 07:49:33;;;;;;;2.80;1.63;;;;;;;;;;5081115;28;20066;-74
2022/11/23 07:51:58;;;;;;;2.42;1.45;;;;;;;;;;5080837;28;20024;-74
2022/11/23 07:54:24;;;;;;;3.65;1.67;;;;;;;;;;5067527;28;20035;-74
2022/11/23 07:56:49;;;;;;;2.10;1.45;;;;;;;;;;5081102;28;20040;-74
2022/11/23 07:59:14;;;;;;;3.35;1.85;;;;;;;;;;5080717;28;20032;-74
2022/11/23 08:01:40;;;;;;;3.13;1.92;;;;;;;;;;5080885;28;20032;-74
2022/11/23 08:04:06;;;;;;;4.38;2.05;;;;;;;;;;5081065;28;20044;-74
2022/11/23 08:06:32;;;;;;;5.43;2.17;;;;;;;;;;5080921;28;20032;-74
2022/11/23 08:08:58;;;;;;;5.78;2.22;;;;;;;;;;5080837;28;20024;-74
2022/11/23 08:11:23;;;;;;;4.10;2.00;;;;;;;;;;5081187;28;20106;-74
2022/11/23 08:13:49;;;;;;;6.05;3.47;;;;;;;;;;5080913;28;20028;-74
2022/11/23 08:16:14;;;;;;;4.25;2.03;;;;;;;;;;5081303;28;20024;-74
2022/11/23 08:18:40;;;;;;;8.07;3.95;;;;;;;;;;5085751;28;20043;-73
2022/11/23 08:21:05;;;;;;;5.47;2.60;;;;;;;;;;5074311;28;20079;-78
2022/11/23 08:23:31;;;;;;;5.03;1.98;;;;;;;;;;5048820;28;20610;-82
2022/11/23 08:25:56;;;;;;;4.90;2.20;;;;;;;;;;5054797;28;20032;-74
2022/11/23 08:28:22;;;;;;;6.53;3.15;;;;;;;;;;5069021;28;20040;-74
2022/11/23 08:30:48;;;;;;;5.20;2.90;;;;;;;;;;5051982;28;20553;-76
2022/11/23 08:33:14;;;;;;;7.13;4.60;;;;;;;;;;5049462;28;20078;-77
2022/11/23 08:35:41;;;;;;;4.90;2.30;;;;;;;;;;5069061;28;20044;-78
2022/11/23 08:38:08;;;;;;;4.68;2.33;;;;;;;;;;5068806;28;20025;-80
2022/11/23 08:40:35;;;;;;;5.40;2.88;;;;;;;;;;5068200;28;20033;-81
2022/11/23 08:43:01;;;;;;;4.28;2.40;;;;;;;;;;5066715;28;20052;-77
2022/11/23 08:45:26;;;;;;;7.65;2.97;;;;;;;;;;5068509;28;20051;-85
2022/11/23 08:47:52;;;;;;;8.50;3.90;;;;;;;;;;5067879;28;20116;-87
2022/11/23 08:50:18;;;;;;;7.43;4.38;;;;;;;;;;5069246;28;20021;-80
2022/11/23 08:52:45;;;;;;;5.13;2.72;;;;;;;;;;5069032;28;20419;-82
2022/11/23 08:55:11;;;;;;;3.60;2.40;;;;;;;;;;5069263;28;20028;-81
2022/11/23 08:57:37;;;;;;;4.05;2.50;;;;;;;;;;5068483;28;20037;-82
2022/11/23 09:00:04;;;;;;;12.50;6.80;;;;;;;;;;5069100;28;20024;-74
2022/11/23 09:02:30;;;;;;;11.65;5.68;;;;;;;;;;5068915;28;20066;-88
2022/11/23 09:04:55;;;;;;;10.18;5.45;;;;;;;;;;5062369;28;20060;-75
2022/11/23 09:07:21;;;;;;;9.63;4.60;;;;;;;;;;5062589;28;20021;-79
2022/11/23 09:09:46;;;;;;;10.25;4.05;;;;;;;;;;5056705;28;20021;-76
2022/11/23 09:12:12;;;;;;;7.82;3.60;;;;;;;;;;5062383;28;20047;-76
2022/11/23 09:14:37;;;;;;;7.38;4.10;;;;;;;;;;5058366;28;20502;-76
2022/11/23 09:17:03;;;;;;;9.30;4.30;;;;;;;;;;5068498;28;20174;-75
2022/11/23 09:19:28;;;;;;;5.57;2.58;;;;;;;;;;5078182;28;20032;-76
2022/11/23 09:21:54;;;;;;;4.32;2.10;;;;;;;;;;5064911;28;20359;-75
2022/11/23 09:24:21;;;;;;;3.38;1.77;;;;;;;;;;5069912;28;20087;-75
2022/11/23 09:26:46;;;;;;;2.22;1.40;;;;;;;;;;5068258;28;20520;-75
2022/11/23 09:29:12;;;;;;;2.60;1.33;;;;;;;;;;5069305;28;20543;-76
2022/11/23 09:31:37;;;;;;;3.55;1.55;;;;;;;;;;5073672;28;20024;-76
2022/11/23 09:34:04;;;;;;;2.20;1.45;;;;;;;;;;5074609;28;20038;-81
2022/11/23 09:36:29;;;;;;;4.50;1.58;;;;;;;;;;5070875;28;20033;-76
2022/11/23 09:38:55;;;;;;;4.07;1.70;;;;;;;;;;5079153;28;20042;-75
2022/11/23 09:41:51;;;;;;;2.30;1.48;;;;;;;;;;5058946;28;20025;-75
2022/11/23 09:44:51;;;;;;;2.60;1.50;;;;;;;;;;5054446;28;20088;-76
2022/11/23 09:47:28;;;;;;;2.55;1.52;;;;;;;;;;5061725;28;20053;-76
2022/11/23 09:49:57;;;;;;;4.82;2.20;;;;;;;;;;5053955;28;20025;-78
2022/11/23 09:52:24;;;;;;;3.10;1.70;;;;;;;;;;5053419;28;20212;-76
2022/11/23 09:54:54;;;;;;;5.22;2.15;;;;;;;;;;5061777;28;20053;-76
2022/11/23 09:57:25;;;;;;;5.53;1.95;;;;;;;;;;5060108;28;20385;-77
2022/11/23 10:00:01;;;;;;;9.30;1.75;;;;;;;;;;5060249;28;20037;-77
2022/11/23 10:02:28;;;;;;;3.13;1.60;;;;;;;;;;5078759;28;20028;-80
2022/11/23 10:04:58;;;;;;;5.45;1.70;;;;;;;;;;5094778;28;20225;-76
2022/11/23 10:07:27;;;;;;;;;;;;;;;;;;5073524;28;20372;-76
2022/11/23 10:10:18;;;;;;;5.95;1.50;;;;;;;;;;5079172;28;19969;-77
2022/11/23 10:13:14;;;;;;;3.05;1.27;;;;;;;;;;5076650;28;20031;-76
2022/11/23 10:16:11;;;;;;;3.50;1.30;;;;;;;;;;5067152;28;20059;-80
2022/11/23 10:18:53;;;;;;;3.05;1.13;;;;;;;;;;5065750;28;20060;-81
2022/11/23 10:21:29;;;;;;;2.03;1.10;;;;;;;;;;5076689;28;20066;-82
2022/11/23 10:24:18;;;;;;;2.83;1.20;;;;;;;;;;5072313;28;20044;-81
2022/11/23 10:26:46;;;;;;;6.00;1.40;;;;;;;;;;5074328;28;20425;-81
2022/11/23 10:29:27;;;;;;;3.85;1.33;;;;;;;;;;5078586;28;20033;-79
2022/11/23 10:31:53;;;;;;;5.05;1.25;;;;;;;;;;5057179;28;20063;-81
2022/11/23 10:34:38;;;;;;;2.92;0.98;;;;;;;;;;5049913;28;20474;-77
2022/11/23 10:37:11;;;;;;;4.35;1.27;;;;;;;;;;5050103;28;20043;-80
2022/11/23 10:39:37;;;;;;;5.25;1.25;;;;;;;;;;5054135;28;20110;-82
2022/11/23 10:42:26;;;;;;;5.47;0.90;;;;;;;;;;5050331;28;20413;-76
2022/11/23 10:44:54;;;;;;;4.60;1.08;;;;;;;;;;5048702;28;20133;-75
2022/11/23 10:47:50;;;;;;;5.88;1.70;;;;;;;;;;5050838;28;20021;-75
2022/11/23 10:50:20;;;;;;;5.70;1.17;;;;;;;;;;5051118;28;20570;-76
2022/11/23 10:53:11;;;;;;;6.97;1.00;;;;;;;;;;5051065;28;20033;-78
2022/11/23 10:55:56;;;;;;;13.05;1.77;;;;;;;;;;5050853;28;20568;-77
2022/11/23 10:58:39;;;;;;;7.18;1.65;;;;;;;;;;5049917;28;20059;-76
2022/11/23 11:01:23;;;;;;;10.05;1.85;;;;;;;;;;5049851;28;20087;-76
2022/11/23 11:03:53;;;;;;;8.88;1.30;;;;;;;;;;5050489;28;20018;-76
2022/11/23 11:06:28;;;;;;;7.83;1.50;;;;;;;;;;5050672;28;20028;-76
2022/11/23 11:08:55;;;;;;;9.77;1.55;;;;;;;;;;5050838;28;20821;-77
2022/11/23 11:11:27;;;;;;;12.82;2.08;;;;;;;;;;5050572;28;20493;-76
2022/11/23 11:14:14;;;;;;;7.10;1.30;;;;;;;;;;5050101;28;20021;-77
2022/11/23 11:16:52;;;;;;;7.15;1.85;;;;;;;;;;5050535;28;20025;-76
2022/11/23 11:19:33;;;;;;;15.50;1.70;;;;;;;;;;5050056;28;20036;-76
2022/11/23 11:22:01;;;;;;;8.68;1.90;;;;;;;;;;5050270;28;20525;-75
2022/11/23 11:24:37;;;;;;;14.15;1.98;;;;;;;;;;5049962;28;20031;-75
2022/11/23 11:27:13;;;;;;;18.10;2.13;;;;;;;;;;5049023;28;20119;-76
2022/11/23 11:29:47;;;;;;;10.40;1.77;;;;;;;;;;5049981;28;20028;-75
2022/11/23 11:32:29;;;;;;;12.88;1.75;;;;;;;;;;5050417;28;20520;-78
2022/11/23 11:34:57;;;;;;;16.65;2.58;;;;;;;;;;5050214;28;20035;-78
2022/11/23 11:37:33;;;;;;;13.65;2.13;;;;;;;;;;5048952;28;20028;-78
2022/11/23 11:40:20;;;;;;;12.20;1.88;;;;;;;;;;5049406;28;20385;-77
2022/11/23 11:42:53;;;;;;;14.10;2.10;;;;;;;;;;5049798;28;20059;-76
2022/11/23 11:45:28;;;;;;;13.52;1.90;;;;;;;;;;5049716;28;20449;-76
2022/11/23 11:48:11;;;;;;;11.27;1.55;;;;;;;;;;5050246;28;20150;-76
2022/11/23 11:50:54;;;;;;;14.93;2.00;;;;;;;;;;5049693;28;20134;-76
2022/11/23 11:53:25;;;;;;;13.45;2.45;;;;;;;;;;5049995;28;20326;-76
2022/11/23 11:56:05;;;;;;;18.48;2.40;;;;;;;;;;5049623;28;20049;-76
2022/11/23 11:58:33;;;;;;;9.02;1.60;;;;;;;;;;5049384;28;20381;-76
2022/11/23 12:01:23;;;;;;;11.98;1.75;;;;;;;;;;5049543;28;20029;-76
2022/11/23 12:04:03;;;;;;;13.57;1.90;;;;;;;;;;5049484;28;20029;-76
2022/11/23 12:07:04;;;;;;;9.90;2.05;;;;;;;;;;5049786;28;20557;-76
2022/11/23 12:09:36;;;;;;;12.40;1.80;;;;;;;;;;5048121;28;20045;-76
2022/11/23 12:12:04;;;;;;;12.82;1.80;;;;;;;;;;5049043;28;20029;-76
2022/11/23 12:14:30;;;;;;;13.55;1.90;;;;;;;;;;5049148;28;20021;-76
2022/11/23 12:17:00;;;;;;;17.05;2.25;;;;;;;;;;5048052;28;20082;-76
2022/11/23 12:19:52;;;;;;;12.25;2.00;;;;;;;;;;5049360;28;20064;-76
2022/11/23 12:22:26;;;;;;;13.02;2.17;;;;;;;;;;5046066;28;20531;-76
2022/11/23 12:25:35;;;;;;;20.33;2.08;;;;;;;;;;5047904;28;20409;-76
2022/11/23 12:28:29;;;;;;;13.05;1.90;;;;;;;;;;5048819;28;20021;-77
2022/11/23 12:31:22;;;;;;;16.08;2.10;;;;;;;;;;5048919;28;20025;-76
2022/11/23 12:33:57;;;;;;;11.30;1.90;;;;;;;;;;5049172;28;20060;-77
2022/11/23 12:36:44;;;;;;;17.08;2.35;;;;;;;;;;5049342;28;20078;-76
2022/11/23 12:39:31;;;;;;;13.98;2.05;;;;;;;;;;5047835;28;20045;-77
2022/11/23 12:42:21;;;;;;;17.17;2.85;;;;;;;;;;5048864;28;20037;-77
2022/11/23 12:45:15;;;;;;;14.35;2.03;;;;;;;;;;5049220;28;20021;-76
2022/11/23 12:48:11;;;;;;;17.40;2.47;;;;;;;;;;5047713;28;20029;-77
2022/11/23 12:50:48;;;;;;;14.18;2.10;;;;;;;;;;5048797;28;20021;-77
2022/11/23 12:53:27;;;;;;;12.68;2.30;;;;;;;;;;5049279;28;20049;-77
2022/11/23 12:55:58;;;;;;;14.90;2.10;;;;;;;;;;5048892;28;20723;-77
2022/11/23 12:58:31;;;;;;;;;;;;;;;;;;5049459;28;20488;-77
2022/11/23 13:01:06;;;;;;;17.55;2.40;;;;;;;;;;5048610;28;19912;-77
2022/11/23 13:03:59;;;;;;;17.17;2.33;;;;;;;;;;5049111;28;20481;-77
2022/11/23 13:06:27;;;;;;;20.45;2.85;;;;;;;;;;5048908;28;20021;-78
2022/11/23 13:09:22;;;;;;;13.70;2.40;;;;;;;;;;5048983;28;20108;-77
2022/11/23 13:12:12;;;;;;;19.02;2.50;;;;;;;;;;5048913;28;20021;-77
2022/11/23 13:14:55;;;;;;;17.27;2.35;;;;;;;;;;5048778;28;20493;-77
2022/11/23 13:17:46;;;;;;;20.35;2.55;;;;;;;;;;5049081;28;20040;-77
2022/11/23 13:20:24;;;;;;;12.77;1.90;;;;;;;;;;5038910;28;20036;-77
2022/11/23 13:22:50;;;;;;;16.55;2.30;;;;;;;;;;5052460;28;20036;-78
2022/11/23 13:25:23;;;;;;;19.17;2.35;;;;;;;;;;5052218;28;20032;-77
2022/11/23 13:27:49;;;;;;;14.23;2.22;;;;;;;;;;5052153;28;20028;-76
2022/11/23 13:30:37;;;;;;;14.10;2.63;;;;;;;;;;5052232;28;20021;-79
2022/11/23 13:33:15;;;;;;;15.05;2.17;;;;;;;;;;5052734;28;20027;-77
2022/11/23 13:35:44;;;;;;;14.18;2.03;;;;;;;;;;5052580;28;20029;-77
2022/11/23 13:38:12;;;;;;;18.67;2.65;;;;;;;;;;5052188;28;20111;-77
2022/11/23 13:40:39;;;;;;;19.13;2.53;;;;;;;;;;5051900;28;20033;-76
2022/11/23 13:43:27;;;;;;;14.45;2.63;;;;;;;;;;5050653;28;20082;-76
2022/11/23 13:46:27;;;;;;;18.13;2.75;;;;;;;;;;5052107;28;20029;-77
2022/11/23 13:49:00;;;;;;;22.13;2.72;;;;;;;;;;5052492;28;20052;-76
2022/11/23 13:51:32;;;;;;;17.13;2.53;;;;;;;;;;5052111;28;20036;-76
2022/11/23 13:54:18;;;;;;;17.58;2.03;;;;;;;;;;5052309;28;20021;-76
2022/11/23 13:56:45;;;;;;;18.20;2.58;;;;;;;;;;5052385;28;20071;-77
2022/11/23 13:59:23;;;;;;;13.90;2.40;;;;;;;;;;5056647;28;20033;-79
2022/11/23 14:02:20;;;;;;;19.55;2.50;;;;;;;;;;5050791;28;20106;-79
2022/11/23 14:04:47;;;;;;;14.23;1.90;;;;;;;;;;5054614;28;20320;-73
2022/11/23 14:07:34;;;;;;;12.32;1.98;;;;;;;;;;5059698;28;20025;-75
2022/11/23 14:10:16;;;;;;;16.75;3.05;;;;;;;;;;5051897;28;20503;-81
2022/11/23 14:12:55;;;;;;;16.85;2.20;;;;;;;;;;5055718;28;20052;-84
2022/11/23 14:15:24;;;;;;;10.98;2.10;;;;;;;;;;5067427;28;20149;-80
2022/11/23 14:18:30;;;;;;;13.38;1.88;;;;;;;;;;5054486;28;20182;-77
2022/11/23 14:21:20;;;;;;;16.73;2.58;;;;;;;;;;5088194;28;20032;-77
2022/11/23 14:24:06;;;;;;;12.27;2.30;;;;;;;;;;5076034;28;20056;-78
2022/11/23 14:26:38;;;;;;;14.60;2.15;;;;;;;;;;5071007;28;20374;-78
2022/11/23 14:29:24;;;;;;;13.88;2.35;;;;;;;;;;5072823;28;20033;-78
2022/11/23 14:31:58;;;;;;;13.23;2.13;;;;;;;;;;5069794;28;20032;-78
2022/11/23 14:34:48;;;;;;;19.30;2.63;;;;;;;;;;5071584;28;20496;-80
2022/11/23 14:37:26;;;;;;;24.50;2.50;;;;;;;;;;5074705;28;20059;-79
2022/11/23 14:40:19;;;;;;;15.20;2.10;;;;;;;;;;5074080;28;20499;-80
2022/11/23 14:42:52;;;;;;;14.57;2.53;;;;;;;;;;5075749;28;20024;-80
2022/11/23 14:45:19;;;;;;;18.65;2.30;;;;;;;;;;5077345;28;20085;-79
2022/11/23 14:47:45;;;;;;;18.13;2.35;;;;;;;;;;5073514;28;20021;-80
2022/11/23 14:50:25;;;;;;;17.35;2.40;;;;;;;;;;5073007;28;20059;-77
2022/11/23 14:52:53;;;;;;;15.82;2.20;;;;;;;;;;5074966;28;20399;-77
2022/11/23 14:55:25;;;;;;;15.52;2.65;;;;;;;;;;5073713;28;20381;-76
2022/11/23 14:57:55;;;;;;;18.30;2.65;;;;;;;;;;5071513;28;20025;-77
2022/11/23 15:00:42;;;;;;;15.95;2.50;;;;;;;;;;5071396;28;20025;-77